Time;durP1;ratioP1;P1;durP2;ratioP2;P2;SDS_P1;SDS_P2;PMS_P1;PMS_P2;Temp;Humidity;BMP_temperature;BMP_pressure;BME280_temperature;BME280_humidity;BME280_pressure;Samples;Min_cycle;Max_cycle;Signal;HPM_P1;HPM_P2
2021/04/17 00:03:36;;;;;;;18.52;7.30;;;;;;;6.09;86.15;100652.05;2762830;86;21192;-62
2021/04/17 00:07:39;;;;;;;15.55;7.47;;;;;;;5.96;86.16;100649.23;2763027;86;21136;-62
2021/04/17 00:11:46;;;;;;;12.33;7.45;;;;;;;5.92;86.75;100645.06;2723983;86;21209;-62
2021/04/17 00:15:49;;;;;;;8.40;5.95;;;;;;;5.94;86.65;100645.83;2744889;86;21146;-61
2021/04/17 00:19:53;;;;;;;15.60;9.48;;;;;;;5.94;86.74;100642.70;2762787;86;21509;-62
2021/04/17 00:23:56;;;;;;;11.03;6.65;;;;;;;5.94;86.85;100627.34;2771227;84;21212;-62
2021/04/17 00:27:59;;;;;;;17.52;7.53;;;;;;;5.93;86.66;100630.44;2818086;84;21592;-62
2021/04/17 00:32:05;;;;;;;10.03;7.87;;;;;;;5.86;86.81;100636.53;2818142;84;21149;-62
2021/04/17 00:36:08;;;;;;;;;;;;;;;5.84;87.00;100626.52;2820423;84;21168;-62
2021/04/17 00:40:11;;;;;;;17.73;7.70;;;;;;;5.84;87.34;100629.16;2817802;84;20173;-62
2021/04/17 00:44:15;;;;;;;14.93;8.65;;;;;;;5.85;87.15;100623.44;2818031;84;21210;-61
2021/04/17 00:48:18;;;;;;;15.83;10.15;;;;;;;5.82;86.96;100628.41;2817816;84;21620;-62
2021/04/17 00:52:21;;;;;;;9.95;7.15;;;;;;;5.78;87.03;100628.20;2817817;84;21161;-62
2021/04/17 00:56:24;;;;;;;12.15;7.45;;;;;;;5.77;87.31;100624.31;2817781;84;21153;-62
2021/04/17 01:00:26;;;;;;;12.45;7.58;;;;;;;5.81;87.54;100617.95;2818076;84;21188;-62
2021/04/17 01:04:39;;;;;;;14.05;8.73;;;;;;;5.83;87.33;100618.22;2818006;84;21128;-61
2021/04/17 01:08:53;;;;;;;17.27;8.98;;;;;;;5.80;87.26;100618.41;2817849;83;21169;-62
2021/04/17 01:12:57;;;;;;;13.83;9.90;;;;;;;5.78;87.35;100622.06;2817741;84;21604;-61
2021/04/17 01:17:02;;;;;;;11.70;8.38;;;;;;;5.81;87.70;100621.91;2817595;84;21170;-62
2021/04/17 01:21:06;;;;;;;14.33;8.50;;;;;;;5.84;87.60;100621.25;2817875;84;21176;-61
2021/04/17 01:25:17;;;;;;;11.97;8.00;;;;;;;5.84;87.38;100623.89;2820207;84;21136;-62
2021/04/17 01:29:20;;;;;;;13.45;8.18;;;;;;;5.90;87.33;100620.54;2820884;84;21124;-61
2021/04/17 01:33:28;;;;;;;10.38;7.87;;;;;;;5.91;87.31;100627.03;2820685;84;21175;-62
2021/04/17 01:37:56;;;;;;;14.70;9.05;;;;;;;5.88;87.15;100622.39;2785406;84;21621;-61
2021/04/17 01:42:03;;;;;;;20.70;8.58;;;;;;;5.86;87.19;100623.81;2774076;85;21143;-62
2021/04/17 01:46:17;;;;;;;12.80;8.13;;;;;;;5.86;86.98;100619.36;2773799;85;21179;-62
2021/04/17 01:50:20;;;;;;;10.18;6.45;;;;;;;5.80;86.97;100618.89;2801842;84;21176;-62
2021/04/17 01:54:30;;;;;;;12.53;8.23;;;;;;;5.75;87.04;100619.59;2820757;84;21593;-62
2021/04/17 01:58:37;;;;;;;8.60;6.83;;;;;;;5.72;86.77;100618.00;2796754;84;21184;-62
2021/04/17 02:02:40;;;;;;;11.90;6.62;;;;;;;5.65;87.06;100620.13;2802913;84;21145;-62
2021/04/17 02:06:43;;;;;;;9.68;7.70;;;;;;;5.64;87.26;100622.38;2773981;85;21197;-62
2021/04/17 02:10:49;;;;;;;13.70;9.78;;;;;;;5.61;87.32;100623.02;2774449;85;21201;-62
2021/04/17 02:14:52;;;;;;;14.40;11.40;;;;;;;5.62;87.33;100630.86;2774307;85;21730;-62
2021/04/17 02:19:01;;;;;;;14.03;9.90;;;;;;;5.60;87.53;100621.31;2774516;85;21477;-62
2021/04/17 02:23:05;;;;;;;12.73;8.40;;;;;;;5.64;87.86;100624.16;2781489;84;21195;-62
2021/04/17 02:27:09;;;;;;;13.22;7.05;;;;;;;5.66;87.81;100621.83;2811650;84;21199;-62
2021/04/17 02:31:13;;;;;;;11.90;8.53;;;;;;;5.63;87.47;100625.96;2811927;84;21167;-62
2021/04/17 02:35:17;;;;;;;7.60;6.87;;;;;;;5.63;87.88;100616.72;2811607;84;21135;-62
2021/04/17 02:39:20;;;;;;;9.13;6.20;;;;;;;5.63;88.01;100618.50;2811751;84;21143;-62
2021/04/17 02:43:22;;;;;;;9.10;6.87;;;;;;;5.67;88.30;100613.42;2811745;84;21171;-62
2021/04/17 02:47:26;;;;;;;13.13;8.40;;;;;;;5.68;88.29;100613.80;2811586;84;21193;-62
2021/04/17 02:51:29;;;;;;;15.05;8.45;;;;;;;5.71;88.28;100618.94;2811931;84;21153;-62
2021/04/17 02:55:32;;;;;;;15.35;9.45;;;;;;;5.72;88.21;100609.59;2812111;84;21145;-62
2021/04/17 02:59:35;;;;;;;14.73;8.68;;;;;;;5.70;88.16;100606.20;2811859;84;21145;-62
2021/04/17 03:03:38;;;;;;;24.00;11.03;;;;;;;5.71;88.13;100604.42;2812017;84;21171;-62
2021/04/17 03:07:41;;;;;;;14.07;10.95;;;;;;;5.64;88.40;100608.33;2811543;84;21169;-62
2021/04/17 03:11:44;;;;;;;15.83;11.10;;;;;;;5.66;88.46;100599.84;2811770;84;21161;-62
2021/04/17 03:15:47;;;;;;;21.25;12.30;;;;;;;5.60;88.53;100609.44;2811747;84;21500;-62
2021/04/17 03:19:50;;;;;;;20.05;13.75;;;;;;;5.63;88.79;100604.84;2811688;84;21164;-62
2021/04/17 03:23:53;;;;;;;18.12;13.72;;;;;;;5.61;88.66;100600.13;2813636;84;21216;-62
2021/04/17 03:27:56;;;;;;;12.88;10.43;;;;;;;5.64;88.83;100593.80;2817765;84;21173;-62
2021/04/17 03:31:59;;;;;;;9.45;8.48;;;;;;;5.58;88.73;100594.55;2818016;84;21639;-62
2021/04/17 03:36:02;;;;;;;11.53;9.43;;;;;;;5.63;89.39;100601.34;2817838;84;21169;-62
2021/04/17 03:40:09;;;;;;;9.93;8.85;;;;;;;5.77;89.55;100594.83;2817832;84;21169;-62
2021/04/17 03:44:12;;;;;;;16.37;7.80;;;;;;;5.84;89.17;100599.30;2817784;84;21149;-62
2021/04/17 03:48:17;;;;;;;10.28;8.93;;;;;;;5.85;88.79;100584.66;2817945;84;21137;-61
2021/04/17 03:52:21;;;;;;;12.58;9.43;;;;;;;5.87;88.53;100595.16;2817791;84;21196;-62
2021/04/17 03:56:24;;;;;;;9.70;7.28;;;;;;;5.85;88.39;100603.14;2817961;84;21177;-62
2021/04/17 04:00:27;;;;;;;11.83;8.08;;;;;;;5.83;88.53;100601.55;2817913;84;21109;-62
2021/04/17 04:04:30;;;;;;;14.45;8.75;;;;;;;5.81;88.59;100608.71;2818057;84;21153;-61
2021/04/17 04:08:33;;;;;;;13.53;9.00;;;;;;;5.78;88.92;100604.45;2818022;84;21180;-62
2021/04/17 04:12:43;;;;;;;16.35;9.25;;;;;;;5.76;88.80;100603.69;2817841;84;21149;-62
2021/04/17 04:16:45;;;;;;;10.65;9.08;;;;;;;5.80;89.12;100607.84;2817936;84;21165;-62
2021/04/17 04:20:48;;;;;;;12.88;9.30;;;;;;;5.83;88.73;100612.11;2817895;84;21550;-62
2021/04/17 04:24:51;;;;;;;13.22;11.33;;;;;;;5.82;88.72;100610.41;2819016;84;21172;-61
2021/04/17 04:28:54;;;;;;;11.63;9.00;;;;;;;5.77;88.97;100604.52;2820051;84;21153;-62
2021/04/17 04:32:57;;;;;;;14.18;10.85;;;;;;;5.75;89.15;100608.58;2771319;85;21177;-61
2021/04/17 04:37:00;;;;;;;11.25;8.70;;;;;;;5.75;89.26;100607.27;2773502;85;21778;-62
2021/04/17 04:41:03;;;;;;;16.52;12.25;;;;;;;5.82;89.44;100613.05;2819875;84;21201;-62
2021/04/17 04:45:09;;;;;;;14.53;9.58;;;;;;;5.85;88.92;100612.39;2771228;85;21145;-61
2021/04/17 04:49:13;;;;;;;15.83;11.05;;;;;;;5.79;88.90;100614.06;2819996;84;21587;-62
2021/04/17 04:53:16;;;;;;;17.80;13.28;;;;;;;5.81;89.11;100620.59;2771140;85;21213;-62
2021/04/17 04:57:18;;;;;;;21.70;11.63;;;;;;;5.80;89.13;100619.72;2773912;85;21182;-62
2021/04/17 05:01:21;;;;;;;25.62;11.05;;;;;;;5.77;88.86;100621.67;2819933;84;21132;-62
2021/04/17 05:05:25;;;;;;;19.65;11.85;;;;;;;5.74;89.08;100626.68;2773919;85;21182;-62
2021/04/17 05:09:28;;;;;;;17.60;12.65;;;;;;;5.77;89.51;100618.58;2819876;84;22206;-62
2021/04/17 05:13:30;;;;;;;20.02;13.55;;;;;;;5.86;89.76;100624.64;2773556;85;22298;-62
2021/04/17 05:17:34;;;;;;;22.65;13.20;;;;;;;5.88;89.09;100625.89;2819663;84;21152;-62
2021/04/17 05:21:37;;;;;;;21.60;13.35;;;;;;;5.85;88.92;100630.87;2820354;84;21156;-61
2021/04/17 05:25:40;;;;;;;12.30;9.98;;;;;;;5.80;89.19;100628.13;2802967;84;21149;-62
2021/04/17 05:29:43;;;;;;;19.92;12.03;;;;;;;5.80;89.33;100637.37;2743259;86;21189;-62
2021/04/17 05:33:45;;;;;;;14.13;10.60;;;;;;;5.74;89.46;100638.56;2743181;86;21157;-62
2021/04/17 05:37:48;;;;;;;29.37;12.63;;;;;;;5.75;89.84;100638.08;2791228;85;21165;-62
2021/04/17 05:41:51;;;;;;;16.90;8.60;;;;;;;5.75;89.79;100638.94;2743176;86;21113;-62
2021/04/17 05:45:54;;;;;;;17.42;11.57;;;;;;;5.71;89.87;100640.05;2743291;86;21189;-62
2021/04/17 05:49:57;;;;;;;21.07;12.20;;;;;;;5.70;90.16;100643.64;2768953;85;21629;-62
2021/04/17 05:54:01;;;;;;;25.30;13.20;;;;;;;5.69;90.10;100639.27;2798046;85;21160;-62
2021/04/17 05:58:04;;;;;;;20.80;12.37;;;;;;;5.78;90.62;100644.05;2766613;86;21216;-62
2021/04/17 06:02:09;;;;;;;22.58;12.47;;;;;;;5.84;90.16;100653.41;2756334;86;21170;-62
2021/04/17 06:06:12;;;;;;;13.85;9.15;;;;;;;5.84;90.07;100652.92;2721460;87;21150;-62
2021/04/17 06:10:16;;;;;;;22.73;11.45;;;;;;;5.86;89.92;100652.86;2726573;86;21159;-62
2021/04/17 06:14:19;;;;;;;18.00;11.35;;;;;;;5.91;89.98;100648.16;2721371;87;21169;-62
2021/04/17 06:18:22;;;;;;;19.67;11.97;;;;;;;5.95;90.02;100651.00;2726627;86;21103;-62
2021/04/17 06:22:26;;;;;;;17.05;10.20;;;;;;;6.04;89.83;100643.06;2721444;87;22044;-62
2021/04/17 06:26:28;;;;;;;19.62;12.88;;;;;;;5.98;89.22;100649.98;2785154;84;21171;-61
2021/04/17 06:30:32;;;;;;;23.07;14.90;;;;;;;5.97;89.83;100646.97;2811688;84;21610;-63
2021/04/17 06:34:35;;;;;;;19.82;12.33;;;;;;;6.05;90.02;100652.69;2811779;84;21188;-63
2021/04/17 06:38:37;;;;;;;20.32;12.28;;;;;;;6.04;89.51;100648.34;2811771;84;21562;-62
2021/04/17 06:42:44;;;;;;;23.27;13.80;;;;;;;6.07;89.46;100653.44;2811873;84;21156;-63
2021/04/17 06:46:48;;;;;;;14.75;12.65;;;;;;;6.15;90.06;100649.05;2781883;84;21172;-62
2021/04/17 06:50:52;;;;;;;17.45;11.45;;;;;;;6.23;89.55;100647.28;2765182;86;21137;-62
2021/04/17 06:54:55;;;;;;;21.10;11.70;;;;;;;6.29;89.52;100651.75;2776696;84;21173;-62
2021/04/17 06:58:59;;;;;;;18.55;10.75;;;;;;;6.26;89.27;100649.29;2811821;83;21201;-63
2021/04/17 07:03:02;;;;;;;19.80;11.43;;;;;;;6.24;89.27;100644.56;2811943;84;21161;-62
2021/04/17 07:07:05;;;;;;;32.28;14.68;;;;;;;6.30;89.52;100648.65;2811731;84;21166;-62
2021/04/17 07:11:09;;;;;;;20.08;15.08;;;;;;;6.31;89.45;100645.52;2811625;84;21619;-62
2021/04/17 07:15:14;;;;;;;18.17;11.22;;;;;;;6.41;90.15;100643.57;2811716;84;21567;-63
2021/04/17 07:19:17;;;;;;;21.12;12.47;;;;;;;6.60;90.21;100645.12;2811784;84;21187;-62
2021/04/17 07:23:37;;;;;;;19.32;15.13;;;;;;;6.71;89.28;100649.31;2811901;84;21176;-63
2021/04/17 07:27:48;;;;;;;35.73;28.38;;;;;;;6.73;88.40;100653.17;2799875;84;21180;-62
2021/04/17 07:31:56;;;;;;;22.17;15.95;;;;;;;6.70;87.99;100655.55;2799314;85;21170;-62
2021/04/17 07:36:02;;;;;;;21.37;18.17;;;;;;;6.69;87.68;100647.70;2799346;85;21657;-62
2021/04/17 07:40:26;;;;;;;20.35;12.07;;;;;;;6.76;88.52;100645.54;2799498;85;21180;-62
2021/04/17 07:44:37;;;;;;;18.37;12.18;;;;;;;6.92;89.01;100641.03;2799404;84;21614;-61
2021/04/17 07:48:41;;;;;;;19.15;12.15;;;;;;;7.13;87.71;100646.78;2753325;86;21205;-61
2021/04/17 07:52:48;;;;;;;15.58;10.35;;;;;;;7.20;87.63;100649.90;2753409;86;21197;-62
2021/04/17 07:56:51;;;;;;;18.52;11.53;;;;;;;7.31;86.45;100658.98;2784687;85;21156;-62
2021/04/17 08:00:54;;;;;;;19.23;12.58;;;;;;;7.25;85.74;100658.39;2799336;85;21165;-63
2021/04/17 08:04:59;;;;;;;16.23;13.22;;;;;;;7.22;86.02;100660.41;2799160;85;22215;-63
2021/04/17 08:09:03;;;;;;;16.00;11.88;;;;;;;7.29;86.65;100669.65;2753230;86;21169;-62
2021/04/17 08:13:08;;;;;;;23.10;13.00;;;;;;;7.31;86.23;100673.05;2753377;86;21197;-62
2021/04/17 08:17:11;;;;;;;23.05;12.82;;;;;;;7.43;86.28;100670.11;2753157;86;21161;-62
2021/04/17 08:21:19;;;;;;;17.60;11.08;;;;;;;7.54;86.73;100665.00;2753179;86;21948;-61
2021/04/17 08:25:24;;;;;;;20.40;11.83;;;;;;;7.58;85.24;100665.17;2755716;85;21776;-62
2021/04/17 08:29:49;;;;;;;17.55;10.78;;;;;;;7.63;85.49;100654.77;2772179;85;21182;-62
2021/04/17 08:34:21;;;;;;;26.73;10.88;;;;;;;7.79;85.48;100651.52;2791819;85;21198;-62
2021/04/17 08:38:48;;;;;;;15.32;9.40;;;;;;;7.85;84.11;100656.89;2791954;85;21196;-61
2021/04/17 08:42:50;;;;;;;18.10;12.37;;;;;;;7.97;85.14;100655.25;2781448;85;21208;-61
2021/04/17 08:46:57;;;;;;;25.62;11.78;;;;;;;8.17;84.82;100655.73;2781207;85;21121;-61
2021/04/17 08:51:23;;;;;;;16.27;12.33;;;;;;;8.26;83.64;100655.15;2781059;85;21638;-62
2021/04/17 08:55:47;;;;;;;16.00;12.35;;;;;;;8.35;83.56;100655.84;2781235;85;21136;-62
2021/04/17 09:00:01;;;;;;;17.40;11.35;;;;;;;8.34;81.67;100654.15;2755121;85;21161;-62
2021/04/17 09:04:10;;;;;;;10.63;8.65;;;;;;;8.28;81.40;100659.38;2738694;86;21192;-62
2021/04/17 09:08:15;;;;;;;11.97;8.93;;;;;;;8.27;81.86;100651.55;2738605;86;21642;-62
2021/04/17 09:12:23;;;;;;;13.98;11.57;;;;;;;8.41;82.20;100647.97;2716670;86;21188;-62
2021/04/17 09:16:39;;;;;;;15.20;7.03;;;;;;;8.56;82.33;100640.80;2738723;86;21645;-62
2021/04/17 09:20:44;;;;;;;11.88;7.97;;;;;;;8.74;81.60;100653.77;2738938;86;21192;-62
2021/04/17 09:24:46;;;;;;;11.15;7.70;;;;;;;8.68;79.75;100649.27;2715753;86;21450;-64
2021/04/17 09:28:50;;;;;;;14.98;11.15;;;;;;;8.63;79.20;100659.80;2753291;85;21182;-63
2021/04/17 09:32:56;;;;;;;14.78;8.75;;;;;;;8.54;80.16;100650.67;2784286;85;21185;-64
2021/04/17 09:37:10;;;;;;;13.13;9.23;;;;;;;8.57;80.22;100650.45;2784168;85;21683;-62
2021/04/17 09:41:14;;;;;;;16.60;12.10;;;;;;;8.57;79.82;100645.16;2781507;85;21181;-62
2021/04/17 09:45:41;;;;;;;14.73;9.90;;;;;;;8.54;80.19;100640.06;2782463;85;21148;-62
2021/04/17 09:49:48;;;;;;;11.53;7.85;;;;;;;8.60;80.00;100651.57;2711187;87;21152;-62
2021/04/17 09:53:55;;;;;;;14.68;8.45;;;;;;;8.64;79.51;100644.27;2713544;87;21221;-62
2021/04/17 09:57:59;;;;;;;15.43;8.43;;;;;;;8.57;78.79;100643.83;2709601;87;21211;-62
2021/04/17 10:02:05;;;;;;;14.58;10.15;;;;;;;8.55;80.16;100637.78;2726668;87;21155;-61
2021/04/17 10:06:35;;;;;;;19.10;10.38;;;;;;;8.67;80.68;100634.77;2686684;88;21605;-61
2021/04/17 10:10:44;;;;;;;12.20;7.67;;;;;;;8.92;80.65;100637.91;2688145;88;21212;-62
2021/04/17 10:14:44;;;;;;;11.85;8.58;;;;;;;9.10;79.67;100630.45;2687908;88;21179;-62
2021/04/17 10:18:48;;;;;;;9.23;8.00;;;;;;;9.10;78.32;100633.61;2725197;87;21182;-64
2021/04/17 10:22:58;;;;;;;15.18;7.37;;;;;;;9.05;78.18;100633.09;2732085;87;21219;-64
2021/04/17 10:27:25;;;;;;;12.53;7.78;;;;;;;9.18;79.12;100627.27;2732283;87;21205;-63
2021/04/17 10:31:28;;;;;;;11.78;7.35;;;;;;;9.29;78.64;100624.71;2688104;87;21193;-65
2021/04/17 10:35:33;;;;;;;12.95;9.05;;;;;;;9.32;77.70;100625.45;2730948;87;21196;-64
2021/04/17 10:39:37;;;;;;;12.98;7.03;;;;;;;9.34;78.09;100621.73;2713317;85;21655;-66
2021/04/17 10:43:40;;;;;;;14.05;8.40;;;;;;;9.42;78.02;100625.14;2726039;87;21628;-64
2021/04/17 10:47:56;;;;;;;16.87;11.93;;;;;;;9.43;78.19;100612.23;2694885;85;21210;-66
2021/04/17 10:52:06;;;;;;;17.07;8.87;;;;;;;9.60;78.74;100607.05;2681243;87;21195;-71
2021/04/17 10:56:13;;;;;;;11.60;9.48;;;;;;;9.60;77.18;100618.14;2704065;87;21193;-70
2021/04/17 11:00:22;;;;;;;19.02;17.20;;;;;;;9.60;77.45;100604.86;2677316;87;21197;-65
2021/04/17 11:04:26;;;;;;;13.58;10.63;;;;;;;9.60;77.89;100604.86;2663600;89;21158;-62
2021/04/17 11:08:31;;;;;;;18.25;11.08;;;;;;;9.83;78.52;100615.14;2729268;86;21178;-64
2021/04/17 11:12:37;;;;;;;14.37;9.93;;;;;;;9.90;76.56;100613.72;2709993;87;21122;-66
2021/04/17 11:16:47;;;;;;;16.82;12.28;;;;;;;9.79;76.78;100609.20;2684668;88;21182;-62
2021/04/17 11:20:58;;;;;;;17.50;12.58;;;;;;;9.74;77.01;100611.84;2685029;88;21166;-64
2021/04/17 11:25:07;;;;;;;26.65;15.48;;;;;;;9.72;76.78;100610.62;2685021;88;21194;-63
2021/04/17 11:29:09;;;;;;;53.87;29.10;;;;;;;9.74;76.99;100608.70;2677860;87;21221;-63
2021/04/17 11:33:12;;;;;;;58.10;36.08;;;;;;;9.75;75.49;100612.22;2700688;88;21226;-65
2021/04/17 11:37:16;;;;;;;48.35;30.12;;;;;;;9.69;76.03;100609.02;2665878;89;21180;-63
2021/04/17 11:41:19;;;;;;;37.60;19.35;;;;;;;9.76;76.99;100607.27;2666391;88;21243;-66
2021/04/17 11:45:22;;;;;;;48.38;29.42;;;;;;;9.85;77.80;100602.13;2624316;90;21220;-63
2021/04/17 11:49:26;;;;;;;29.80;17.75;;;;;;;10.11;76.28;100603.31;2692132;88;21197;-63
2021/04/17 11:53:29;;;;;;;20.80;10.78;;;;;;;10.22;75.68;100598.98;2666516;89;21197;-64
2021/04/17 11:57:33;;;;;;;19.95;11.28;;;;;;;10.52;75.50;100597.19;2624608;90;21184;-67
2021/04/17 12:01:36;;;;;;;16.75;10.23;;;;;;;10.75;74.84;100607.86;2664453;88;21205;-65
2021/04/17 12:05:40;;;;;;;14.87;11.88;;;;;;;10.85;73.98;100612.81;2686051;88;21173;-64
2021/04/17 12:09:44;;;;;;;12.68;9.75;;;;;;;10.82;73.81;100613.55;2685367;88;21182;-64
2021/04/17 12:13:47;;;;;;;15.10;11.68;;;;;;;10.97;73.50;100617.66;2684810;88;21198;-66
2021/04/17 12:17:51;;;;;;;13.60;10.18;;;;;;;10.88;73.55;100617.06;2685033;88;21217;-64
2021/04/17 12:21:55;;;;;;;15.87;11.87;;;;;;;11.02;74.96;100619.97;2685410;88;21198;-64
2021/04/17 12:25:58;;;;;;;15.50;13.78;;;;;;;11.15;73.80;100619.84;2685726;87;21211;-66
2021/04/17 12:30:04;;;;;;;19.42;9.95;;;;;;;11.17;73.15;100614.41;2686766;88;21726;-67
2021/04/17 12:34:07;;;;;;;12.50;10.43;;;;;;;11.07;71.63;100623.61;2728823;87;21193;-66
2021/04/17 12:38:11;;;;;;;15.80;11.85;;;;;;;10.89;72.93;100621.88;2667393;89;21173;-64
2021/04/17 12:42:14;;;;;;;14.23;10.30;;;;;;;10.80;73.32;100616.80;2664556;89;21206;-68
2021/04/17 12:46:17;;;;;;;14.90;11.80;;;;;;;10.60;72.42;100619.18;2667156;88;21193;-65
2021/04/17 12:50:21;;;;;;;17.05;10.40;;;;;;;10.49;73.83;100613.86;2665875;89;21165;-65
2021/04/17 12:54:24;;;;;;;15.43;12.28;;;;;;;10.54;74.29;100609.02;2741312;86;21639;-67
2021/04/17 12:58:28;;;;;;;12.93;9.05;;;;;;;10.69;75.21;100611.84;2666979;89;21205;-66
2021/04/17 13:02:30;;;;;;;20.90;12.18;;;;;;;10.71;74.25;100602.42;2721806;87;21200;-65
2021/04/17 13:06:34;;;;;;;14.18;11.35;;;;;;;10.67;73.48;100609.78;2737970;86;21537;-66
2021/04/17 13:10:37;;;;;;;12.80;11.05;;;;;;;10.53;73.60;100608.66;2737426;86;21782;-64
2021/04/17 13:14:40;;;;;;;18.52;15.03;;;;;;;10.43;74.66;100609.84;2737219;86;29298;-66
2021/04/17 13:18:45;;;;;;;14.78;13.03;;;;;;;10.32;74.39;100605.31;2737643;86;21176;-65
2021/04/17 13:22:47;;;;;;;17.98;12.75;;;;;;;10.27;74.53;100606.98;2737402;86;21521;-66
2021/04/17 13:26:50;;;;;;;25.30;16.95;;;;;;;10.23;74.76;100612.67;2737448;86;21754;-65
2021/04/17 13:30:53;;;;;;;16.67;12.75;;;;;;;10.21;74.44;100613.23;2701342;86;21178;-65
2021/04/17 13:34:57;;;;;;;13.85;10.48;;;;;;;10.08;75.29;100615.50;2693536;88;21146;-64
2021/04/17 13:39:00;;;;;;;16.37;11.57;;;;;;;10.04;75.46;100615.38;2692224;88;21178;-65
2021/04/17 13:43:02;;;;;;;16.27;11.45;;;;;;;10.07;76.50;100613.81;2666470;89;21249;-63
2021/04/17 13:47:05;;;;;;;22.45;14.63;;;;;;;10.12;75.78;100616.10;2667350;88;21180;-63
2021/04/17 13:51:08;;;;;;;14.25;10.95;;;;;;;10.09;76.11;100614.54;2704471;87;21691;-64
2021/04/17 13:55:12;;;;;;;14.00;9.40;;;;;;;10.07;76.03;100615.14;2693114;87;21188;-65
2021/04/17 13:59:15;;;;;;;10.85;7.65;;;;;;;10.10;76.59;100613.58;2712176;87;21235;-66
2021/04/17 14:03:18;;;;;;;8.63;7.40;;;;;;;10.09;77.91;100615.88;2706985;86;21154;-65
2021/04/17 14:07:21;;;;;;;8.58;7.28;;;;;;;10.12;78.16;100627.59;2731055;86;21157;-65
2021/04/17 14:11:24;;;;;;;19.12;12.75;;;;;;;10.07;77.75;100619.59;2724027;86;21181;-62
2021/04/17 14:15:29;;;;;;;11.28;8.18;;;;;;;10.01;78.98;100619.56;2678266;88;21199;-63
2021/04/17 14:19:32;;;;;;;31.90;21.93;;;;;;;10.03;78.94;100618.13;2741384;86;21190;-63
2021/04/17 14:23:36;;;;;;;16.65;12.37;;;;;;;9.98;79.30;100614.48;2737069;86;21198;-64
2021/04/17 14:27:40;;;;;;;17.05;13.40;;;;;;;9.94;79.53;100616.54;2667016;88;21185;-65
2021/04/17 14:31:44;;;;;;;31.93;21.23;;;;;;;9.97;80.21;100612.78;2741508;86;21154;-64
2021/04/17 14:35:48;;;;;;;56.77;35.05;;;;;;;10.03;80.48;100603.05;2741096;86;21154;-64
2021/04/17 14:39:51;;;;;;;39.70;25.20;;;;;;;10.02;79.72;100601.82;2741246;86;21186;-64
2021/04/17 14:43:54;;;;;;;23.00;15.60;;;;;;;10.08;79.83;100595.57;2740885;86;21600;-65
2021/04/17 14:47:56;;;;;;;12.98;11.50;;;;;;;10.12;80.52;100593.51;2730861;86;21165;-65
2021/04/17 14:52:00;;;;;;;27.80;18.73;;;;;;;10.18;80.02;100585.56;2730279;87;21193;-64
2021/04/17 14:56:04;;;;;;;23.75;15.00;;;;;;;10.22;79.53;100589.67;2729861;86;21651;-64
2021/04/17 15:00:09;;;;;;;19.27;13.65;;;;;;;10.23;79.73;100592.23;2737293;86;21190;-62
2021/04/17 15:04:13;;;;;;;26.23;19.45;;;;;;;10.26;79.58;100595.98;2740783;85;21169;-64
2021/04/17 15:08:24;;;;;;;19.67;17.42;;;;;;;10.27;80.35;100596.34;2696739;86;21222;-64
2021/04/17 15:12:29;;;;;;;18.65;16.50;;;;;;;10.30;79.07;100599.27;2696713;88;21616;-65
2021/04/17 15:16:32;;;;;;;19.20;11.80;;;;;;;10.23;78.69;100602.86;2696809;88;21197;-66
2021/04/17 15:20:37;;;;;;;14.35;11.35;;;;;;;10.11;78.67;100603.31;2696832;88;21639;-64
2021/04/17 15:24:44;;;;;;;31.68;17.52;;;;;;;10.03;79.51;100596.87;2703873;86;21612;-63
2021/04/17 15:28:48;;;;;;;20.27;16.82;;;;;;;10.08;79.27;100596.90;2697447;86;21186;-62
2021/04/17 15:32:52;;;;;;;20.10;16.48;;;;;;;10.11;79.65;100596.66;2700954;87;21221;-65
2021/04/17 15:37:00;;;;;;;23.25;16.20;;;;;;;10.12;79.66;100595.70;2659622;89;21249;-63
2021/04/17 15:41:15;;;;;;;12.40;10.45;;;;;;;10.22;80.00;100598.98;2668374;88;21185;-64
2021/04/17 15:45:17;;;;;;;11.30;8.53;;;;;;;10.17;79.32;100597.16;2716998;86;21616;-63
2021/04/17 15:49:23;;;;;;;17.65;9.15;;;;;;;10.15;79.56;100595.46;2710269;87;21730;-63
2021/04/17 15:53:26;;;;;;;24.87;14.57;;;;;;;10.14;79.71;100600.91;2713356;86;21178;-65
2021/04/17 16:15:05;;;;;;;22.60;16.10;;;;;;;10.57;80.22;100592.81;2716136;86;21169;-64
2021/04/17 16:19:05;;;;;;;22.45;16.75;;;;;;;10.67;79.17;100594.28;2724463;87;21150;-62
2021/04/17 16:23:10;;;;;;;15.30;11.00;;;;;;;10.69;79.25;100591.88;2741319;86;21633;-62
2021/04/17 16:27:15;;;;;;;19.00;12.68;;;;;;;10.64;78.87;100590.06;2741419;86;21185;-60
2021/04/17 16:31:20;;;;;;;12.00;9.43;;;;;;;10.53;78.66;100587.38;2769494;85;21168;-60
2021/04/17 16:35:26;;;;;;;13.90;10.50;;;;;;;10.45;79.35;100581.81;2727184;87;21218;-60
2021/04/17 16:39:28;;;;;;;26.73;12.17;;;;;;;10.45;80.21;100578.66;2706637;87;21210;-60
2021/04/17 16:43:31;;;;;;;11.63;10.30;;;;;;;10.50;80.20;100579.64;2702734;86;21249;-60
2021/04/17 16:47:35;;;;;;;27.35;17.32;;;;;;;10.47;80.26;100574.06;2682592;87;21595;-60
2021/04/17 16:51:38;;;;;;;17.07;13.05;;;;;;;10.50;80.53;100580.97;2667850;88;21188;-60
2021/04/17 16:55:41;;;;;;;11.33;9.45;;;;;;;10.60;80.98;100580.61;2706961;87;21185;-61
2021/04/17 16:59:45;;;;;;;11.83;9.63;;;;;;;10.66;80.20;100580.16;2713777;86;21189;-60
2021/04/17 17:03:48;;;;;;;15.98;11.08;;;;;;;10.63;80.29;100582.20;2667281;87;21241;-60
2021/04/17 17:07:53;;;;;;;16.17;11.03;;;;;;;10.57;80.53;100577.72;2699655;88;21229;-61
2021/04/17 17:11:57;;;;;;;12.90;9.98;;;;;;;10.47;79.99;100577.22;2699029;88;21178;-61
2021/04/17 17:16:00;;;;;;;21.50;13.48;;;;;;;10.35;80.67;100576.32;2700072;88;21166;-62
2021/04/17 17:20:06;;;;;;;22.37;15.03;;;;;;;10.33;81.18;100567.12;2699654;88;21194;-61
2021/04/17 17:24:32;;;;;;;27.73;12.78;;;;;;;10.35;81.44;100576.32;2700048;88;21193;-61
2021/04/17 17:28:36;;;;;;;13.17;9.27;;;;;;;10.46;81.86;100579.02;2674237;87;21174;-60
2021/04/17 17:32:40;;;;;;;16.07;7.90;;;;;;;10.56;81.09;100585.80;2652086;89;22320;-62
2021/04/17 17:36:44;;;;;;;11.57;8.75;;;;;;;10.55;80.54;100588.97;2688884;88;21170;-62
2021/04/17 17:40:48;;;;;;;12.53;8.10;;;;;;;10.63;80.41;100595.50;2689112;88;21205;-61
2021/04/17 17:44:51;;;;;;;12.60;9.05;;;;;;;10.61;80.01;100597.43;2688077;88;21194;-61
2021/04/17 17:48:57;;;;;;;9.08;8.00;;;;;;;10.61;80.01;100597.43;2687303;88;21621;-62
2021/04/17 17:52:59;;;;;;;13.05;9.85;;;;;;;10.57;80.36;100596.34;2677423;88;21194;-61
2021/04/17 17:57:07;;;;;;;12.10;9.60;;;;;;;10.63;80.49;100603.01;2635852;88;21170;-61
2021/04/17 18:01:10;;;;;;;11.00;9.90;;;;;;;10.65;80.26;100599.74;2610282;89;21163;-64
2021/04/17 18:05:15;;;;;;;13.78;11.05;;;;;;;10.68;80.67;100598.17;2671242;89;21194;-60
2021/04/17 18:09:18;;;;;;;15.18;11.53;;;;;;;10.68;80.04;100598.64;2675529;89;21145;-61
2021/04/17 18:13:26;;;;;;;12.35;10.15;;;;;;;10.67;80.14;100607.59;2678210;88;21546;-61
2021/04/17 18:17:29;;;;;;;21.23;16.93;;;;;;;10.66;80.22;100607.23;2635075;88;21196;-61
2021/04/17 18:21:33;;;;;;;15.15;11.45;;;;;;;10.66;80.35;100611.22;2668975;89;21149;-61
2021/04/17 18:25:37;;;;;;;15.32;12.30;;;;;;;10.71;80.26;100617.88;2676322;88;21227;-61
2021/04/17 18:29:42;;;;;;;14.43;10.78;;;;;;;10.70;80.02;100615.33;2649706;88;21169;-61
2021/04/17 18:34:29;;;;;;;15.60;11.20;;;;;;;10.63;79.58;100614.98;2663406;88;21152;-61
2021/04/17 18:38:33;;;;;;;13.03;8.70;;;;;;;10.53;79.73;100620.63;2641468;88;21145;-60
2021/04/17 18:42:36;;;;;;;12.98;10.35;;;;;;;10.44;80.20;100628.83;2639612;90;21157;-61
2021/04/17 18:46:39;;;;;;;18.02;11.75;;;;;;;10.28;80.32;100632.60;2615686;90;21171;-60
2021/04/17 18:50:44;;;;;;;11.12;9.15;;;;;;;10.21;81.06;100631.38;2608164;90;21591;-60
2021/04/17 18:54:46;;;;;;;14.07;9.98;;;;;;;10.29;81.47;100632.14;2640606;90;21157;-62
2021/04/17 18:58:49;;;;;;;23.25;12.63;;;;;;;10.25;80.88;100629.34;2627956;90;21169;-62
2021/04/17 19:02:53;;;;;;;17.42;14.13;;;;;;;10.02;81.05;100633.22;2599465;91;21177;-61
2021/04/17 19:06:57;;;;;;;21.97;16.00;;;;;;;9.77;81.63;100635.53;2599487;91;21172;-61
2021/04/17 19:11:00;;;;;;;27.20;17.75;;;;;;;9.57;82.47;100632.02;2599293;91;21168;-61